Startpagina
METAR-TAF:

METAR-TAF

Vliegvelden :

Bückeburg, Duitsland

breedte: 52-17N, lengte: 009-05E, hoogte: 70 m

Actueel weer

Dit bericht is 56 minuten geleden gemaakt, om 03:20 UTC
Wind 1 kt uit het zuiden
Temperatuur 12°C
Vochtigheid 88%
Druk 1023 hPa

METAR: ETHB 240320Z AUTO 17001KT //// // ////// 12/10 Q1023 ///

Tijdstip: 06:16 (04:16 UTC)

Verwachting

Dit bericht is 17 uur en het 22 minuten geleden gemaakt, om 10:54 UTC
Verwachting geldig van 23 om 05 UTC tot 23 om 14 UTC
Wind 3 kt uit variabele richting
Zicht: 1000 m
Weinig wolken op 30000 ft

TAF: ETHB 231054Z 2305/2314 VRB03KT 9999 NSW FEW300 CANCEL 1000

Waarnemingen en weersverwachtingen van meer dan 4000 vliegvelden (METAR en TAF).

De beschikbare stations zijn de gele en rode punten op de kaart.

Ga met uw muis naar het station om de naam te zien.

Klik dan om waarnemingen en weersverwachtingen te zien.

kaart wijzigen: klik op de groene knoppen met een zwart kruis om in te zoomen, op de groene knop met een streepje om uit te zoomen of op de groene pijlen voor aangrenzende kaarten.


METAR-TAF: